Time;durP1;ratioP1;P1;durP2;ratioP2;P2;SDS_P1;SDS_P2;PMS_P1;PMS_P2;Temp;Humidity;BMP_temperature;BMP_pressure;BME280_temperature;BME280_humidity;BME280_pressure;Samples;Min_cycle;Max_cycle;Signal;HPM_P1;HPM_P2
2022/10/31 00:03:20;;;;;;;5.25;2.05;;;;;;;13.36;100.00;98751.03;15271622;19;20697;-60
2022/10/31 00:08:47;;;;;;;4.10;1.80;;;;;;;13.34;100.00;98753.09;15267237;19;20018;-58
2022/10/31 00:14:18;;;;;;;4.63;1.90;;;;;;;13.32;100.00;98747.84;15267516;19;20018;-55
2022/10/31 00:19:43;;;;;;;5.13;1.70;;;;;;;13.34;100.00;98755.81;15263849;19;20022;-61
2022/10/31 00:25:10;;;;;;;5.15;2.00;;;;;;;13.34;100.00;98763.94;15268113;19;20033;-58
2022/10/31 00:30:35;;;;;;;5.20;1.90;;;;;;;13.33;100.00;98764.94;15267898;19;20039;-60
2022/10/31 00:35:59;;;;;;;4.53;1.77;;;;;;;13.28;100.00;98767.28;15267093;19;20014;-59
2022/10/31 00:41:27;;;;;;;4.78;2.08;;;;;;;13.21;100.00;98773.41;15269463;19;20086;-58
2022/10/31 00:46:55;;;;;;;3.90;1.80;;;;;;;13.13;100.00;98784.22;15267736;19;20018;-56
2022/10/31 00:52:20;;;;;;;4.85;1.65;;;;;;;13.09;100.00;98782.88;15263756;19;20006;-59
2022/10/31 00:57:47;;;;;;;6.32;2.28;;;;;;;13.01;100.00;98788.25;15263751;19;20029;-60
2022/10/31 01:03:12;;;;;;;3.30;1.60;;;;;;;12.96;100.00;98791.47;15263911;19;20018;-62
2022/10/31 01:08:37;;;;;;;4.63;1.77;;;;;;;12.90;100.00;98787.56;15262277;19;20011;-59
2022/10/31 01:14:05;;;;;;;5.90;1.92;;;;;;;12.85;100.00;98787.25;15262232;19;20508;-60
2022/10/31 01:19:29;;;;;;;4.28;1.80;;;;;;;12.76;100.00;98790.94;15261487;19;20030;-57
2022/10/31 01:24:54;;;;;;;5.90;1.90;;;;;;;12.72;100.00;98790.41;15259081;19;20015;-58
2022/10/31 01:30:21;;;;;;;3.88;1.70;;;;;;;12.64;100.00;98783.13;15266416;19;20025;-57
2022/10/31 01:35:46;;;;;;;4.82;2.10;;;;;;;12.60;100.00;98781.78;15265537;19;20035;-60
2022/10/31 01:41:10;;;;;;;5.85;2.08;;;;;;;12.49;100.00;98780.22;15273769;19;20018;-55
2022/10/31 01:46:41;;;;;;;4.03;1.70;;;;;;;12.43;100.00;98770.09;15276462;19;20023;-56
2022/10/31 01:52:09;;;;;;;4.23;1.90;;;;;;;12.36;100.00;98776.31;15280524;19;20610;-62
2022/10/31 01:57:36;;;;;;;4.25;1.83;;;;;;;12.35;100.00;98785.44;15270064;19;20026;-58
2022/10/31 02:03:04;;;;;;;4.97;2.10;;;;;;;12.38;100.00;98777.00;15274601;19;20025;-58
2022/10/31 02:08:31;;;;;;;4.53;1.90;;;;;;;12.38;100.00;98779.72;15275711;19;20007;-57
2022/10/31 02:14:03;;;;;;;3.17;1.70;;;;;;;12.40;100.00;98783.09;15271824;19;20753;-59
2022/10/31 02:19:38;;;;;;;3.97;1.70;;;;;;;12.43;100.00;98790.84;15273340;19;20018;-59
2022/10/31 02:25:11;;;;;;;7.15;2.25;;;;;;;12.44;100.00;98788.00;15275902;19;20023;-57
2022/10/31 02:30:47;;;;;;;4.38;1.80;;;;;;;12.48;100.00;98799.31;15267101;19;20038;-57
2022/10/31 02:36:23;;;;;;;5.80;1.85;;;;;;;12.45;100.00;98805.06;15273704;19;20544;-56
2022/10/31 02:41:52;;;;;;;5.82;2.10;;;;;;;12.40;100.00;98808.25;15276809;19;20014;-59
2022/10/31 02:47:21;;;;;;;5.65;2.00;;;;;;;12.30;100.00;98808.38;15273385;19;20052;-57
2022/10/31 02:52:53;;;;;;;4.60;2.00;;;;;;;12.16;100.00;98811.72;15272579;19;20089;-58
2022/10/31 02:58:22;;;;;;;4.80;1.90;;;;;;;12.01;100.00;98804.22;15272420;19;20027;-57
2022/10/31 03:04:00;;;;;;;5.45;1.80;;;;;;;11.88;100.00;98809.16;15263170;19;20028;-58
2022/10/31 03:09:34;;;;;;;3.33;1.80;;;;;;;11.78;100.00;98816.53;15269045;19;20017;-56
2022/10/31 03:15:20;;;;;;;6.47;1.90;;;;;;;11.67;100.00;98821.19;15267061;19;20023;-60
2022/10/31 03:20:48;;;;;;;4.80;2.05;;;;;;;11.57;100.00;98828.56;15269634;19;20014;-59
2022/10/31 03:26:18;;;;;;;5.70;1.90;;;;;;;11.52;100.00;98828.16;15272288;19;20018;-57
2022/10/31 03:31:52;;;;;;;7.47;2.00;;;;;;;11.44;100.00;98825.41;15271265;19;20014;-57
2022/10/31 03:37:20;;;;;;;3.50;1.90;;;;;;;11.37;100.00;98834.13;15269213;19;20051;-57
2022/10/31 03:42:56;;;;;;;5.43;2.00;;;;;;;11.35;100.00;98835.28;15272744;19;20014;-57
2022/10/31 03:48:23;;;;;;;4.68;2.10;;;;;;;11.30;100.00;98841.16;15270707;19;20754;-59
2022/10/31 03:53:53;;;;;;;6.53;2.08;;;;;;;11.27;100.00;98837.91;15271557;19;20032;-58
2022/10/31 03:59:25;;;;;;;4.93;2.28;;;;;;;11.28;100.00;98848.53;15267437;19;20018;-58
2022/10/31 04:04:58;;;;;;;3.55;1.90;;;;;;;11.29;100.00;98847.53;15263138;19;20022;-57
2022/10/31 04:10:26;;;;;;;5.50;1.80;;;;;;;11.34;100.00;98845.25;15270452;19;20460;-58
2022/10/31 04:16:03;;;;;;;5.50;1.90;;;;;;;11.35;100.00;98855.00;15269493;19;20070;-58
2022/10/31 04:21:34;;;;;;;5.40;2.25;;;;;;;11.28;100.00;98850.41;15267593;19;20744;-58
2022/10/31 04:26:58;;;;;;;4.75;1.75;;;;;;;11.19;100.00;98852.19;15266448;19;20026;-57
2022/10/31 04:32:26;;;;;;;4.93;2.10;;;;;;;11.08;100.00;98858.63;15268186;19;20368;-57
2022/10/31 04:37:51;;;;;;;4.43;2.03;;;;;;;10.99;100.00;98851.47;15257797;19;20116;-58
2022/10/31 04:43:16;;;;;;;5.63;2.05;;;;;;;10.87;100.00;98858.94;15267990;19;20018;-59
2022/10/31 04:48:52;;;;;;;5.40;2.00;;;;;;;10.71;100.00;98865.84;15264431;19;20019;-59
2022/10/31 04:54:19;;;;;;;4.05;2.13;;;;;;;10.55;100.00;98862.97;15265451;19;20024;-58
2022/10/31 05:00:02;;;;;;;5.25;2.03;;;;;;;10.44;100.00;98864.03;15267692;19;20700;-58
2022/10/31 05:05:32;;;;;;;5.78;2.47;;;;;;;10.25;100.00;98864.94;15263722;19;20102;-58
2022/10/31 05:10:56;;;;;;;6.78;2.42;;;;;;;10.06;100.00;98869.38;15261852;19;20065;-59
2022/10/31 05:16:22;;;;;;;5.13;2.20;;;;;;;9.97;100.00;98862.19;15273200;19;20045;-58
2022/10/31 05:22:08;;;;;;;6.95;2.40;;;;;;;9.86;100.00;98866.75;15281250;19;20014;-58
2022/10/31 05:27:33;;;;;;;5.47;2.30;;;;;;;9.78;100.00;98860.38;15276544;19;20022;-59
2022/10/31 05:32:59;;;;;;;5.30;2.35;;;;;;;9.67;100.00;98862.25;15278637;19;20022;-59
2022/10/31 05:38:44;;;;;;;6.55;2.55;;;;;;;9.61;100.00;98867.38;15277522;19;20015;-59
2022/10/31 05:44:18;;;;;;;6.25;2.53;;;;;;;9.51;100.00;98878.16;15274363;19;20023;-60
2022/10/31 05:49:49;;;;;;;5.50;2.58;;;;;;;9.48;100.00;98879.28;15275662;19;20036;-58
2022/10/31 05:55:22;;;;;;;6.70;2.40;;;;;;;9.49;100.00;98880.97;15279816;19;20019;-59
2022/10/31 06:01:08;;;;;;;6.68;2.25;;;;;;;9.48;100.00;98873.88;15273065;19;20078;-60
2022/10/31 06:06:33;;;;;;;5.97;2.50;;;;;;;9.48;100.00;98867.69;15276755;19;20026;-60
2022/10/31 06:12:00;;;;;;;5.53;2.58;;;;;;;9.52;100.00;98896.00;15277819;19;20418;-60
2022/10/31 06:17:44;;;;;;;3.35;2.30;;;;;;;9.54;100.00;98894.00;15268547;19;20469;-60
2022/10/31 06:23:10;;;;;;;4.45;2.40;;;;;;;9.56;100.00;98900.94;15274189;19;20361;-58
2022/10/31 06:28:45;;;;;;;5.93;2.60;;;;;;;9.54;100.00;98905.63;15268937;19;20018;-58
2022/10/31 06:34:30;;;;;;;3.70;2.50;;;;;;;9.55;100.00;98901.94;15274660;19;20026;-57
2022/10/31 06:39:54;;;;;;;6.72;2.92;;;;;;;9.58;100.00;98905.34;15271702;19;20014;-58
2022/10/31 06:45:39;;;;;;;4.28;2.60;;;;;;;9.61;100.00;98913.97;15266331;19;20010;-58
2022/10/31 06:51:08;;;;;;;5.60;2.70;;;;;;;9.65;100.00;98911.84;15273122;19;20010;-58
2022/10/31 06:56:34;;;;;;;6.00;2.72;;;;;;;9.70;100.00;98921.16;15270106;19;20018;-59
2022/10/31 07:02:02;;;;;;;6.60;2.53;;;;;;;9.73;100.00;98928.09;15264417;19;20048;-58
2022/10/31 07:07:27;;;;;;;6.70;2.85;;;;;;;9.79;100.00;98930.22;15265996;19;20015;-58
2022/10/31 07:12:51;;;;;;;8.00;2.70;;;;;;;9.85;100.00;98931.50;15268431;19;20022;-58
2022/10/31 07:18:21;;;;;;;4.65;2.60;;;;;;;9.95;100.00;98936.84;15258533;19;20014;-58
2022/10/31 07:23:46;;;;;;;5.90;2.75;;;;;;;10.02;100.00;98927.22;15271989;19;20022;-60
2022/10/31 07:29:26;;;;;;;7.43;2.75;;;;;;;10.10;100.00;98938.09;15269156;19;21363;-57
2022/10/31 07:34:54;;;;;;;6.40;2.67;;;;;;;10.16;100.00;98940.22;15268278;19;20027;-58
2022/10/31 07:40:29;;;;;;;4.95;2.50;;;;;;;10.26;100.00;98937.47;15266777;19;20086;-58
2022/10/31 07:45:58;;;;;;;8.93;2.83;;;;;;;10.36;100.00;98936.59;15267908;19;20391;-58
2022/10/31 07:51:43;;;;;;;4.93;2.47;;;;;;;10.44;100.00;98934.91;15267390;19;20041;-61
2022/10/31 07:57:31;;;;;;;4.65;2.45;;;;;;;10.53;100.00;98932.28;15270355;19;20057;-62
2022/10/31 08:03:00;;;;;;;5.78;2.45;;;;;;;10.64;100.00;98934.84;15268604;19;20777;-62
2022/10/31 08:08:39;;;;;;;8.68;2.50;;;;;;;10.75;100.00;98937.31;15271022;19;20022;-62
2022/10/31 08:14:04;;;;;;;5.72;2.50;;;;;;;10.89;100.00;98943.19;15267283;19;20713;-63
2022/10/31 08:19:29;;;;;;;5.90;2.65;;;;;;;11.00;100.00;98940.28;15269188;19;20018;-63
2022/10/31 08:25:00;;;;;;;4.53;2.50;;;;;;;11.15;100.00;98942.47;15261196;19;20518;-63
2022/10/31 08:30:25;;;;;;;6.70;2.50;;;;;;;11.33;100.00;98935.25;15270453;19;20048;-63
2022/10/31 08:36:08;;;;;;;6.30;2.55;;;;;;;11.48;100.00;98937.41;15265601;19;20919;-62
2022/10/31 08:41:40;;;;;;;8.18;2.55;;;;;;;11.64;100.00;98937.56;15263412;19;20026;-62
2022/10/31 08:46:58;;;;;;;6.50;2.25;;;;;;;11.79;100.00;98928.91;15263721;19;20023;-62
2022/10/31 08:52:26;;;;;;;4.40;2.33;;;;;;;11.95;100.00;98929.00;15264176;19;20404;-61
2022/10/31 08:58:15;;;;;;;3.58;2.20;;;;;;;12.16;100.00;98917.06;15257231;19;20018;-62
2022/10/31 09:03:44;;;;;;;5.38;2.35;;;;;;;12.30;100.00;98921.84;15265246;19;20019;-63
2022/10/31 09:09:09;;;;;;;6.50;2.45;;;;;;;12.48;100.00;98913.66;15263095;19;20014;-62
2022/10/31 09:14:36;;;;;;;5.45;2.40;;;;;;;12.69;100.00;98908.84;15260908;19;20027;-61
2022/10/31 09:20:06;;;;;;;5.80;2.38;;;;;;;12.88;100.00;98903.16;15264966;19;20579;-63
2022/10/31 09:25:31;;;;;;;8.15;2.63;;;;;;;13.12;100.00;98906.94;15263139;19;20025;-63
2022/10/31 09:31:18;;;;;;;5.78;2.30;;;;;;;13.37;100.00;98898.88;15260836;19;20048;-63
2022/10/31 09:36:49;;;;;;;8.27;2.53;;;;;;;13.60;100.00;98898.25;15261068;19;20027;-63
2022/10/31 09:42:46;;;;;;;6.00;2.50;;;;;;;13.79;100.00;98897.91;15261606;19;20473;-63
2022/10/31 09:48:24;;;;;;;4.68;2.40;;;;;;;13.96;100.00;98895.16;15259100;19;20345;-63
2022/10/31 09:54:06;;;;;;;;;;;;;;;14.17;100.00;98895.47;15264226;19;20014;-63
2022/10/31 09:59:36;;;;;;;5.32;2.47;;;;;;;14.38;100.00;98888.66;15255055;19;20299;-62
2022/10/31 10:05:07;;;;;;;6.72;2.78;;;;;;;14.62;100.00;98890.41;15272685;19;20015;-62
2022/10/31 10:10:47;;;;;;;6.43;3.35;;;;;;;14.79;100.00;98888.50;15277632;19;20017;-62
2022/10/31 10:16:45;;;;;;;6.78;3.58;;;;;;;15.02;100.00;98876.03;15272386;19;20014;-62
2022/10/31 10:22:21;;;;;;;9.20;4.15;;;;;;;15.25;100.00;98870.59;15275378;19;20504;-62
2022/10/31 10:27:58;;;;;;;10.57;3.90;;;;;;;15.50;100.00;98865.84;15272820;19;20040;-62
2022/10/31 10:33:27;;;;;;;6.93;3.50;;;;;;;15.70;100.00;98865.31;15270007;19;20018;-63
2022/10/31 10:39:00;;;;;;;8.95;4.10;;;;;;;15.88;100.00;98856.88;15270373;19;20025;-62
2022/10/31 10:50:02;;;;;;;6.53;3.20;;;;;;;16.25;100.00;98841.53;15266469;19;20030;-63
2022/10/31 10:55:38;;;;;;;6.78;3.35;;;;;;;16.42;100.00;98835.88;15274081;19;20033;-63
2022/10/31 11:01:03;;;;;;;8.85;3.97;;;;;;;16.59;100.00;98831.94;15271075;19;20018;-61
2022/10/31 11:06:28;;;;;;;7.43;3.70;;;;;;;16.79;100.00;98834.03;15262335;19;20025;-61
2022/10/31 11:11:55;;;;;;;8.32;3.95;;;;;;;16.92;100.00;98822.47;15273788;19;20446;-61
2022/10/31 11:17:27;;;;;;;7.97;3.70;;;;;;;17.10;100.00;98811.19;15272804;19;20019;-62
2022/10/31 11:22:53;;;;;;;9.18;3.40;;;;;;;17.27;100.00;98789.13;15270330;19;20026;-63
2022/10/31 11:28:21;;;;;;;8.52;3.30;;;;;;;17.36;100.00;98785.22;15269941;19;20025;-62
2022/10/31 11:33:48;;;;;;;6.57;2.50;;;;;;;17.50;100.00;98778.00;15272205;19;20523;-61
2022/10/31 11:39:21;;;;;;;5.38;2.50;;;;;;;17.63;100.00;98780.00;15265354;19;20022;-62
2022/10/31 11:44:52;;;;;;;7.72;2.80;;;;;;;17.77;100.00;98776.31;15272696;19;20022;-61
2022/10/31 11:50:24;;;;;;;7.18;2.65;;;;;;;17.91;100.00;98768.25;15273225;19;20404;-61
2022/10/31 11:55:48;;;;;;;6.07;2.67;;;;;;;18.06;100.00;98771.69;15267819;19;20022;-62
2022/10/31 12:01:28;;;;;;;8.63;2.88;;;;;;;18.24;100.00;98765.69;15267482;19;20018;-62
2022/10/31 12:06:57;;;;;;;8.30;2.70;;;;;;;18.39;100.00;98754.66;15266622;19;20029;-61
2022/10/31 12:12:38;;;;;;;5.72;2.63;;;;;;;18.50;100.00;98753.22;15262178;19;20018;-61
2022/10/31 12:18:18;;;;;;;8.10;2.70;;;;;;;18.65;100.00;98742.13;15265779;19;20011;-63
2022/10/31 12:23:56;;;;;;;8.63;2.60;;;;;;;18.79;100.00;98732.09;15263137;19;20484;-62
2022/10/31 12:29:37;;;;;;;5.28;2.40;;;;;;;18.87;100.00;98722.88;15262194;19;20021;-62
2022/10/31 12:35:39;;;;;;;5.45;2.50;;;;;;;18.97;100.00;98723.34;15263824;19;20014;-62
2022/10/31 12:41:30;;;;;;;7.70;2.70;;;;;;;19.02;100.00;98715.34;15257945;19;20026;-63
2022/10/31 12:47:08;;;;;;;5.13;2.25;;;;;;;19.13;100.00;98702.97;15262930;19;20679;-63
2022/10/31 12:52:57;;;;;;;7.85;2.40;;;;;;;19.22;100.00;98703.59;15265572;19;20021;-62
2022/10/31 12:58:26;;;;;;;7.43;2.08;;;;;;;19.24;100.00;98701.47;15266416;19;20429;-63
2022/10/31 13:03:59;;;;;;;5.72;2.30;;;;;;;19.29;100.00;98698.97;15260216;19;20015;-61
2022/10/31 13:09:33;;;;;;;5.63;2.38;;;;;;;19.31;100.00;98696.00;15262423;19;20023;-61
2022/10/31 13:15:08;;;;;;;6.93;2.60;;;;;;;19.23;100.00;98684.28;15256794;19;20018;-61
2022/10/31 13:20:37;;;;;;;9.75;2.53;;;;;;;19.17;100.00;98681.53;15264621;19;20495;-61
2022/10/31 13:26:07;;;;;;;4.30;2.35;;;;;;;19.06;100.00;98670.19;15264278;19;20390;-61
2022/10/31 13:31:32;;;;;;;5.68;2.35;;;;;;;18.97;100.00;98665.16;15267148;19;20022;-61
2022/10/31 13:37:04;;;;;;;5.57;2.40;;;;;;;18.88;100.00;98661.75;15271069;19;20017;-61
2022/10/31 13:42:44;;;;;;;8.20;2.60;;;;;;;18.76;100.00;98656.91;15276588;19;20040;-61
2022/10/31 13:48:10;;;;;;;8.68;2.72;;;;;;;18.64;100.00;98648.53;15271487;19;20833;-64
2022/10/31 13:53:59;;;;;;;6.70;2.63;;;;;;;18.50;100.00;98644.09;15276792;19;20026;-63
2022/10/31 13:59:30;;;;;;;5.45;2.60;;;;;;;18.35;100.00;98637.97;15274131;19;20035;-63
2022/10/31 14:05:00;;;;;;;4.80;2.38;;;;;;;18.28;100.00;98632.53;15277002;19;20089;-66
2022/10/31 14:10:35;;;;;;;6.43;2.40;;;;;;;18.17;100.00;98632.03;15278138;19;21050;-62
2022/10/31 14:16:11;;;;;;;4.35;2.50;;;;;;;18.14;100.00;98626.16;15270598;19;20026;-62
2022/10/31 14:21:41;;;;;;;6.57;2.75;;;;;;;18.05;100.00;98625.50;15270716;19;20413;-65
2022/10/31 14:27:08;;;;;;;6.45;2.90;;;;;;;17.94;100.00;98624.19;15272479;19;20018;-65
2022/10/31 14:32:37;;;;;;;7.07;2.38;;;;;;;17.89;100.00;98613.06;15277434;19;20542;-64
2022/10/31 14:38:32;;;;;;;7.80;2.97;;;;;;;17.83;100.00;98620.16;15271621;19;20476;-63
2022/10/31 14:44:18;;;;;;;6.95;2.97;;;;;;;17.71;100.00;98616.34;15265139;19;20442;-65
2022/10/31 14:50:25;;;;;;;7.00;3.60;;;;;;;17.60;100.00;98609.59;15263182;19;20022;-62
2022/10/31 14:55:53;;;;;;;10.23;4.25;;;;;;;17.40;100.00;98604.03;15273822;19;20043;-64
2022/10/31 15:01:32;;;;;;;10.30;4.35;;;;;;;17.27;100.00;98599.38;15273135;19;20395;-65
2022/10/31 15:07:04;;;;;;;8.80;4.30;;;;;;;17.09;100.00;98594.44;15268111;19;20019;-64
2022/10/31 15:12:37;;;;;;;9.85;4.30;;;;;;;16.96;100.00;98591.63;15271791;19;20010;-64
2022/10/31 15:18:05;;;;;;;9.43;4.55;;;;;;;16.78;100.00;98584.75;15273268;19;20018;-63
2022/10/31 15:23:36;;;;;;;10.90;4.70;;;;;;;16.60;100.00;98580.66;15264940;19;20011;-63
2022/10/31 15:29:02;;;;;;;11.93;4.78;;;;;;;16.43;100.00;98576.50;15271730;19;20026;-64
2022/10/31 15:34:32;;;;;;;11.88;5.20;;;;;;;16.27;100.00;98566.75;15274613;19;20043;-64
2022/10/31 15:40:09;;;;;;;10.85;5.20;;;;;;;16.10;100.00;98569.75;15270309;19;20633;-63
2022/10/31 15:45:36;;;;;;;9.77;5.10;;;;;;;15.92;100.00;98564.75;15269755;19;20015;-63
2022/10/31 15:51:02;;;;;;;9.82;5.50;;;;;;;15.77;100.00;98563.91;15271453;19;20033;-63
2022/10/31 15:56:33;;;;;;;10.27;5.35;;;;;;;15.61;100.00;98557.66;15263035;19;20029;-64
2022/10/31 16:02:02;;;;;;;8.70;5.60;;;;;;;15.46;100.00;98559.59;15268901;19;20022;-64
2022/10/31 16:07:29;;;;;;;13.60;6.15;;;;;;;15.30;100.00;98569.59;15271268;19;21086;-64
2022/10/31 16:12:56;;;;;;;11.68;5.68;;;;;;;15.19;100.00;98568.19;15271978;19;20021;-63
2022/10/31 16:18:21;;;;;;;12.27;6.15;;;;;;;15.04;100.00;98562.78;15267141;19;20018;-63
2022/10/31 16:23:50;;;;;;;12.27;6.32;;;;;;;14.95;100.00;98559.31;15269959;19;20019;-61
2022/10/31 16:29:45;;;;;;;9.95;6.00;;;;;;;14.85;100.00;98561.44;15261183;19;20026;-61
2022/10/31 16:35:28;;;;;;;12.13;6.20;;;;;;;14.78;100.00;98560.50;15265323;19;20039;-62
2022/10/31 16:40:53;;;;;;;12.02;6.70;;;;;;;14.69;100.00;98565.16;15268810;19;20035;-62
2022/10/31 16:46:24;;;;;;;13.65;6.75;;;;;;;14.67;100.00;98556.38;15269535;19;20349;-61
2022/10/31 16:51:49;;;;;;;10.73;6.10;;;;;;;14.60;100.00;98561.66;15268187;19;20039;-61
2022/10/31 16:57:17;;;;;;;11.88;6.15;;;;;;;14.55;100.00;98560.53;15266707;19;20025;-62
2022/10/31 17:02:45;;;;;;;13.77;6.82;;;;;;;14.49;100.00;98565.66;15263658;19;20082;-62
2022/10/31 17:08:09;;;;;;;12.35;6.93;;;;;;;14.44;100.00;98562.66;15243571;19;20049;-61
2022/10/31 17:13:38;;;;;;;9.52;6.47;;;;;;;14.41;100.00;98560.28;15273932;19;20029;-62
2022/10/31 17:19:05;;;;;;;10.70;6.70;;;;;;;14.35;100.00;98563.75;15276348;19;20033;-62
2022/10/31 17:24:30;;;;;;;12.90;6.90;;;;;;;14.26;100.00;98559.44;15277240;19;20023;-62
2022/10/31 17:29:54;;;;;;;11.48;7.60;;;;;;;14.16;100.00;98555.09;15278589;19;20035;-63
2022/10/31 17:35:23;;;;;;;14.85;8.50;;;;;;;14.05;100.00;98552.81;15276698;19;20480;-63
2022/10/31 17:40:47;;;;;;;16.13;8.30;;;;;;;13.98;100.00;98546.41;15282059;19;20490;-63
2022/10/31 17:46:13;;;;;;;16.33;8.52;;;;;;;13.93;100.00;98544.25;15281552;19;20144;-60
2022/10/31 17:51:41;;;;;;;14.88;8.57;;;;;;;13.92;100.00;98542.56;15282768;19;20027;-63
2022/10/31 17:57:06;;;;;;;16.63;9.32;;;;;;;13.87;100.00;98548.53;15279195;19;20481;-63
2022/10/31 18:02:30;;;;;;;15.82;9.05;;;;;;;13.85;100.00;98545.16;15282154;19;20006;-62
2022/10/31 18:08:22;;;;;;;16.58;9.63;;;;;;;13.88;100.00;98535.81;15271542;19;20018;-63
2022/10/31 18:13:48;;;;;;;17.52;9.63;;;;;;;13.85;100.00;98547.03;15277934;19;20019;-63
2022/10/31 18:19:14;;;;;;;14.20;9.45;;;;;;;13.79;100.00;98545.03;15276928;19;20637;-61
2022/10/31 18:24:42;;;;;;;15.52;9.30;;;;;;;13.75;100.00;98541.84;15274923;19;20010;-61
2022/10/31 18:30:08;;;;;;;15.95;9.50;;;;;;;13.73;100.00;98543.03;15278813;19;20033;-63
2022/10/31 18:35:37;;;;;;;16.55;8.98;;;;;;;13.71;100.00;98535.06;15277446;19;20006;-62
2022/10/31 18:41:05;;;;;;;16.58;9.40;;;;;;;13.63;100.00;98511.63;15278221;19;20484;-63
2022/10/31 18:46:30;;;;;;;18.50;10.40;;;;;;;13.61;100.00;98502.84;15271427;19;20425;-63
2022/10/31 18:51:54;;;;;;;16.08;9.45;;;;;;;13.56;100.00;98516.06;15278744;19;20022;-63
2022/10/31 18:57:21;;;;;;;16.63;9.98;;;;;;;13.50;100.00;98523.03;15275376;19;20096;-61
2022/10/31 19:02:47;;;;;;;15.02;9.60;;;;;;;13.47;100.00;98512.53;15275561;19;20011;-64
2022/10/31 19:08:13;;;;;;;14.45;9.45;;;;;;;13.44;100.00;98501.25;15268219;19;20090;-63
2022/10/31 19:13:41;;;;;;;13.95;9.25;;;;;;;13.35;100.00;98493.16;15268717;19;20022;-64
2022/10/31 19:19:05;;;;;;;16.88;10.25;;;;;;;13.28;100.00;98496.72;15266615;19;20015;-61
2022/10/31 19:24:30;;;;;;;16.38;9.90;;;;;;;13.24;100.00;98486.25;15270419;19;20497;-63
2022/10/31 19:29:57;;;;;;;15.73;10.00;;;;;;;13.20;100.00;98482.22;15269924;19;20389;-63
2022/10/31 19:35:21;;;;;;;17.67;10.55;;;;;;;13.14;100.00;98474.81;15268791;19;20031;-63
2022/10/31 19:40:46;;;;;;;16.88;10.93;;;;;;;13.09;100.00;98477.22;15271097;19;20025;-63
2022/10/31 19:46:16;;;;;;;16.10;10.15;;;;;;;13.00;100.00;98489.06;15269710;19;20010;-62
2022/10/31 19:52:00;;;;;;;19.52;11.65;;;;;;;12.89;100.00;98472.22;15273536;19;20015;-62
2022/10/31 19:57:25;;;;;;;19.45;12.68;;;;;;;12.83;100.00;98467.50;15269837;19;20402;-62
2022/10/31 20:03:13;;;;;;;20.88;11.82;;;;;;;12.82;100.00;98470.41;15266998;19;20035;-63
2022/10/31 20:08:39;;;;;;;20.08;12.98;;;;;;;12.77;100.00;98465.50;15267224;19;20007;-59
2022/10/31 20:14:04;;;;;;;22.77;12.32;;;;;;;12.77;100.00;98462.78;15258996;19;20007;-64
2022/10/31 20:19:31;;;;;;;17.35;11.82;;;;;;;12.74;100.00;98455.06;15265796;19;20056;-65
2022/10/31 20:24:55;;;;;;;23.85;14.48;;;;;;;12.70;100.00;98449.13;15263597;19;20014;-68
2022/10/31 20:30:21;;;;;;;21.00;13.75;;;;;;;12.69;100.00;98457.41;15266898;19;20022;-63
2022/10/31 20:35:48;;;;;;;22.30;14.13;;;;;;;12.69;100.00;98460.13;15270289;19;20018;-65
2022/10/31 20:41:16;;;;;;;19.17;13.18;;;;;;;12.69;100.00;98465.53;15270906;19;20018;-63
2022/10/31 20:46:41;;;;;;;19.33;13.02;;;;;;;12.61;100.00;98464.56;15255650;19;20010;-64
2022/10/31 20:52:09;;;;;;;24.60;13.60;;;;;;;12.56;100.00;98450.69;15269104;19;20052;-65
2022/10/31 20:57:33;;;;;;;21.73;13.68;;;;;;;12.50;100.00;98440.59;15265784;19;20026;-64
2022/10/31 21:02:58;;;;;;;20.20;12.90;;;;;;;12.34;100.00;98436.09;15267056;19;20034;-64
2022/10/31 21:08:25;;;;;;;19.50;11.35;;;;;;;12.34;100.00;98441.50;15265319;19;20021;-65
2022/10/31 21:13:52;;;;;;;17.38;11.82;;;;;;;12.32;100.00;98436.25;15266368;19;20015;-64
2022/10/31 21:19:16;;;;;;;24.27;15.63;;;;;;;12.30;100.00;98424.75;15259498;19;20037;-64
2022/10/31 21:24:44;;;;;;;22.70;14.75;;;;;;;12.31;100.00;98418.34;15263657;19;20018;-64
2022/10/31 21:30:09;;;;;;;25.67;16.25;;;;;;;12.31;100.00;98412.94;15266847;19;20021;-64
2022/10/31 21:35:34;;;;;;;21.33;14.27;;;;;;;12.27;100.00;98414.31;15265830;19;20014;-64
2022/10/31 21:41:06;;;;;;;21.65;14.65;;;;;;;12.24;100.00;98394.88;15268000;19;20104;-64
2022/10/31 21:46:34;;;;;;;24.92;15.90;;;;;;;12.26;100.00;98399.13;15259561;19;20078;-64
2022/10/31 21:51:58;;;;;;;24.25;15.55;;;;;;;12.38;100.00;98412.25;15263132;19;20018;-65
2022/10/31 21:57:26;;;;;;;21.58;13.95;;;;;;;12.48;100.00;98411.03;15267482;19;20026;-63
2022/10/31 22:02:52;;;;;;;16.13;9.27;;;;;;;12.60;100.00;98398.00;15278368;19;20248;-64
2022/10/31 22:08:16;;;;;;;9.93;6.63;;;;;;;12.75;100.00;98378.34;15275678;19;20077;-65
2022/10/31 22:13:44;;;;;;;9.18;5.45;;;;;;;12.90;100.00;98363.03;15275699;19;20033;-65
2022/10/31 22:19:10;;;;;;;9.95;4.43;;;;;;;12.99;100.00;98347.63;15272636;19;20051;-66
2022/10/31 22:24:35;;;;;;;10.45;4.70;;;;;;;13.05;100.00;98327.13;15268988;19;20488;-65
2022/10/31 22:30:02;;;;;;;9.25;3.83;;;;;;;13.09;100.00;98306.81;15273029;19;20085;-63
2022/10/31 22:35:27;;;;;;;6.90;3.50;;;;;;;13.13;100.00;98294.59;15277087;19;20033;-65
2022/10/31 22:40:54;;;;;;;7.80;3.08;;;;;;;13.18;100.00;98277.81;15279715;19;20022;-66
2022/10/31 22:46:23;;;;;;;8.95;3.22;;;;;;;13.21;100.00;98266.66;15272522;19;20227;-66
2022/10/31 22:51:49;;;;;;;8.57;3.30;;;;;;;13.22;100.00;98269.19;15276795;19;20030;-65
2022/10/31 22:57:13;;;;;;;5.57;2.83;;;;;;;13.23;100.00;98259.19;15266653;19;20026;-64
2022/10/31 23:02:42;;;;;;;6.28;2.60;;;;;;;13.24;100.00;98250.06;15277211;19;20014;-65
2022/10/31 23:08:08;;;;;;;5.72;2.50;;;;;;;13.26;100.00;98235.31;15269710;19;20465;-64
2022/10/31 23:19:23;;;;;;;7.03;2.72;;;;;;;13.25;100.00;98249.03;15270210;19;20025;-61
2022/10/31 23:24:50;;;;;;;7.43;2.70;;;;;;;13.25;100.00;98239.03;15271732;19;20408;-61
2022/10/31 23:30:15;;;;;;;8.00;2.90;;;;;;;13.16;100.00;98232.03;15270637;19;20369;-62
2022/10/31 23:35:44;;;;;;;7.25;2.80;;;;;;;13.01;100.00;98228.44;15272035;19;20022;-62
2022/10/31 23:41:08;;;;;;;4.78;2.80;;;;;;;12.77;100.00;98220.34;15273701;19;20025;-62
2022/10/31 23:46:33;;;;;;;8.93;3.55;;;;;;;12.66;100.00;98225.31;15270066;19;20396;-64
2022/10/31 23:52:01;;;;;;;7.20;3.40;;;;;;;12.57;100.00;98222.69;15275880;19;20017;-64
2022/10/31 23:57:25;;;;;;;6.40;3.25;;;;;;;12.45;100.00;98218.72;15274357;19;20011;-64
